SpazioLink.com il tuo mini portale

Terremoti in Italia, posizione geografica

Spaziolink il MiniPortale

Home Sfondi Screenmates SuperEnalotto Posizione navi Terremoti Calendario feste Barzellette Frasi utili Giochi Meteo Gifs Software Ricerca
Lista dei terremoti in Italia in tempo reale dopo l'elaborazione dei valori rilevati dai sensori dislocati nelle zone interessate, comprendenti gli eventi sismici di elevata magnitudo sull'intero globo, per visualizzare la posizione dell'epicentro su Google Maps cliccare sul nome del luogo evidenziato in blu.
DATA ORA MAG ≥ 2 ZONA REGIONE LAT LONG PROF km
25/09/2020 00:38:50 ML 3.4 Tirreno Meridionale (MARE) Mare 38.84 15.54 217.1
24/09/2020 21:21:40 ML 4.0 Albania Mondo 41.05 19.85 28.8
24/09/2020 20:11:00 ML 2.6 Costa Siciliana nord-occidentale (Trapani) Mare 38.28 12.87 9.7
24/09/2020 13:22:12 ML 2.1 Costa Siciliana nord-orientale (Messina) Mare 38.17 14.55 9.1
24/09/2020 10:46:54 ML 2.4 Costa Siciliana nord-orientale (Messina) Mare 38.19 14.56 5.6
24/09/2020 10:30:55 ML 2.1 1 km a nord di Rodž Milici (ME) Sicilia 38.12 15.17 7.6
24/09/2020 09:42:10 ML 2.4 6 km a nord di Montereale (AQ) Abruzzo 42.58 13.23 11.7
24/09/2020 08:08:07 ML 2.2 Terme Vigliatore (ME) Sicilia 38.14 15.16 7.1
24/09/2020 07:55:00 ML 2.9 1 km a sud di Terme Vigliatore (ME) Sicilia 38.13 15.17 8.8
24/09/2020 07:53:38 Mw 3.4 1 km a sud di Terme Vigliatore (ME) Sicilia 38.13 15.16 9.7
24/09/2020 07:21:00 ML 4.1 Costa Greca Ionica (GRECIA) Mare 38.74 20.59 16.0
24/09/2020 04:32:18 ML 2.0 Mar Ionio Meridionale (MARE) Mare 36.83 15.90 9.9
24/09/2020 01:25:10 Mw 4.2 Costa Albanese settentrionale (ALBANIA) Mare 41.00 19.78 20.0
24/09/2020 01:14:47 ML 2.0 3 km a nord di Manfredonia (FG) Puglia 41.66 15.93 19.2
24/09/2020 00:24:19 ML 2.9 10 km a ovest di Milo (CT) Sicilia 37.76 15.01 0.2
23/09/2020 23:45:51 Md 2.3 5 km a nord di Trecase (NA) Campania 40.81 14.43 1.3
23/09/2020 22:50:11 ML 3.1 2 km a nord di Salemi (TP) Sicilia 37.83 12.80 9.4
23/09/2020 15:45:14 ML 3.2 Tirreno Meridionale (MARE) Mare 39.50 14.27 469.6
23/09/2020 13:30:01 ML 2.1 Confine Italia-Svizzera (SVIZZERA) Mondo 46.59 9.43 9.4
23/09/2020 12:59:14 ML 2.3 6 km a est di Santo Stefano in Aspromonte (RC) Calabria 38.19 15.85 8.2
23/09/2020 06:44:09 ML 2.2 3 km a sud di Ficarolo (RO) Mondo 44.93 11.43 9.7
22/09/2020 18:00:21 ML 2.6 Costa Siciliana nord-orientale (Messina) Mare 38.37 15.38 118.9
22/09/2020 16:41:12 ML 2.3 3 km a est di San Biagio Saracinisco (FR) Lazio 41.61 13.96 17.8
22/09/2020 11:12:32 ML 2.1 Isole Eolie (Messina) Mare 38.51 14.78 19.2
22/09/2020 11:01:24 ML 2.0 2 km a sud di Scapoli (IS) Molise 41.60 14.06 10.8
21/09/2020 20:49:01 ML 2.9 Costa Calabra nord-occidentale (Cosenza) Mare 39.45 15.74 264.3
21/09/2020 17:17:18 ML 2.3 10 km a ovest di Milo (CT) Sicilia 37.76 15.01 1.1
21/09/2020 14:22:16 Mw 3.5 Costa Ionica Crotonese (Crotone) Mare 39.16 17.31 21.0
21/09/2020 09:43:39 ML 2.0 9 km nord-est Roccaforte del Greco (RC) Calabria 38.12 15.95 44.9
21/09/2020 07:16:44 ML 2.1 3 km a ovest di Milo (CT) Sicilia 37.73 15.08 5.6
21/09/2020 02:57:50 ML 3.0 2 km a nord-ovest di Furnari (ME) Sicilia 38.12 15.12 8.6
20/09/2020 17:18:08 ML 2.0 5 km a ovest di Gubbio (PG) Umbria 43.37 12.52 8.0
20/09/2020 17:15:17 ML 3.0 2 km a nord-ovest di Furnari (ME) Sicilia 38.12 15.11 6.5
20/09/2020 16:32:29 ML 2.0 2 km a nord-ovest di Tripi (ME) Sicilia 38.06 15.09 6.8
20/09/2020 12:59:03 mb 4.5 Croatia (Land) Mondo 44.22 15.94 10.1
20/09/2020 09:52:42 ML 2.1 2 km a sud di Scapoli (IS) Molise 41.60 14.06 10.5
20/09/2020 08:41:56 ML 2.2 8 km a sud-est di Bronte (CT) Sicilia 37.75 14.90 22.6
20/09/2020 05:15:46 ML 2.2 3 km a nord-ovest di Chiusdino (SI) Toscana 43.17 11.06 8.3
20/09/2020 05:00:58 ML 2.3 Tirreno Meridionale (MARE) Mare 38.60 15.49 176.0
20/09/2020 01:57:06 ML 2.9 Mar Ionio Settentrionale (MARE) Mare 38.33 17.34 35.0
19/09/2020 18:40:21 ML 2.6 Isole Eolie (Messina) Mare 38.69 15.37 207.6
19/09/2020 02:49:31 ML 2.1 Austria (AUSTRIA) Mondo 46.92 13.12 11.2
18/09/2020 23:43:58 Mwp 6.6 Brazil (Sea) Mondo 0.95 -26.80 0.8
18/09/2020 19:27:44 ML 2.2 8 km a est di Pizzoli (AQ) Abruzzo 42.45 13.40 9.5
18/09/2020 18:28:14 Mwp 5.9 Crete, Greece (Sea: Greece) Mondo 34.81 25.27 19.5
18/09/2020 03:41:51 ML 2.2 2 km a nord di Ussita (MC) Marche 42.96 13.14 9.2
18/09/2020 03:16:45 ML 3.4 Costa Calabra sud-orientale (Reggio di Calabria) Mare 37.91 16.42 35.7
Locations of visitors to this page (counting)
- subnet mask - partners - ipcheck - favicon - speedtest - canale youtube - programmone